Time;durP1;ratioP1;P1;durP2;ratioP2;P2;SDS_P1;SDS_P2;PMS_P1;PMS_P2;Temp;Humidity;BMP_temperature;BMP_pressure;BME280_temperature;BME280_humidity;BME280_pressure;Samples;Min_cycle;Max_cycle;Signal;HPM_P1;HPM_P2
2022/11/16 00:01:27;;;;;;;72.70;14.20;;;13.40;1.00;;;;;;5113286;28;20477;-76
2022/11/16 00:03:56;;;;;;;73.40;14.23;;;13.40;1.00;;;;;;5113505;28;20536;-76
2022/11/16 00:06:23;;;;;;;72.80;13.40;;;13.40;1.00;;;;;;5113253;28;20965;-76
2022/11/16 00:11:33;;;;;;;73.70;13.40;;;13.40;1.00;;;;;;5112039;28;20426;-76
2022/11/16 00:14:00;;;;;;;72.17;15.00;;;13.40;1.00;;;;;;5112970;28;20488;-76
2022/11/16 00:16:29;;;;;;;73.30;15.50;;;13.40;1.00;;;;;;5113030;28;20520;-76
2022/11/16 00:18:57;;;;;;;78.07;16.00;;;13.30;1.00;;;;;;5112192;28;21027;-76
2022/11/16 00:21:24;;;;;;;72.97;14.63;;;13.20;1.00;;;;;;5113008;28;20441;-76
2022/11/16 00:23:51;;;;;;;72.40;15.80;;;13.10;1.00;;;;;;5112773;28;20566;-77
2022/11/16 00:26:18;;;;;;;75.60;15.33;;;12.70;1.00;;;;;;5112805;28;20532;-76
2022/11/16 00:28:45;;;;;;;75.00;14.53;;;12.10;1.00;;;;;;5112075;28;21094;-77
2022/11/16 00:31:12;;;;;;;71.60;14.43;;;11.90;1.00;;;;;;5112872;28;20452;-76
2022/11/16 00:33:41;;;;;;;71.90;14.57;;;12.20;1.00;;;;;;5112827;28;20528;-76
2022/11/16 00:36:11;;;;;;;76.50;13.87;;;12.50;1.00;;;;;;5112643;28;21024;-76
2022/11/16 00:38:38;;;;;;;72.27;15.40;;;12.70;1.00;;;;;;5111869;28;20608;-77
2022/11/16 00:41:05;;;;;;;73.00;13.77;;;12.90;1.00;;;;;;5112811;28;20532;-77
2022/11/16 00:43:32;;;;;;;72.73;14.53;;;12.90;1.00;;;;;;5112528;28;20481;-77
2022/11/16 00:45:59;;;;;;;69.83;12.90;;;13.00;1.00;;;;;;5111957;28;20968;-77
2022/11/16 00:48:26;;;;;;;72.17;14.90;;;13.10;1.00;;;;;;5112743;28;20516;-77
2022/11/16 00:50:54;;;;;;;71.20;13.77;;;13.10;1.00;;;;;;5111774;28;20450;-77
2022/11/16 00:53:21;;;;;;;72.00;14.20;;;13.10;1.00;;;;;;5112611;28;20548;-77
2022/11/16 00:55:49;;;;;;;69.83;13.27;;;13.20;1.00;;;;;;5112579;28;20456;-77
2022/11/16 00:58:16;;;;;;;72.57;13.80;;;13.20;1.00;;;;;;5112147;28;20598;-76
2022/11/16 01:00:43;;;;;;;74.03;15.20;;;13.10;1.00;;;;;;5111756;28;20450;-77
2022/11/16 01:03:11;;;;;;;78.23;14.10;;;12.90;1.00;;;;;;5112417;28;20884;-77
2022/11/16 01:05:39;;;;;;;67.60;11.07;;;12.60;1.00;;;;;;5112178;28;20548;-77
2022/11/16 01:08:07;;;;;;;69.30;11.80;;;12.00;1.00;;;;;;5111987;28;20489;-77
2022/11/16 01:10:35;;;;;;;67.03;10.60;;;11.80;1.00;;;;;;5111630;28;20493;-77
2022/11/16 01:13:01;;;;;;;65.90;10.23;;;12.00;1.00;;;;;;5112168;28;20441;-77
2022/11/16 01:15:28;;;;;;;66.50;10.93;;;12.30;1.00;;;;;;5112173;28;20555;-77
2022/11/16 01:17:56;;;;;;;66.43;11.57;;;12.50;1.00;;;;;;5111931;28;20226;-77
2022/11/16 01:20:26;;;;;;;67.73;11.97;;;12.80;1.00;;;;;;5111365;28;21056;-77
2022/11/16 01:22:54;;;;;;;67.87;12.40;;;12.90;1.00;;;;;;5112058;28;20855;-77
2022/11/16 01:25:22;;;;;;;64.90;10.63;;;13.00;1.00;;;;;;5112006;28;20492;-77
2022/11/16 01:27:49;;;;;;;69.17;12.63;;;13.00;1.00;;;;;;5112047;28;20485;-78
2022/11/16 01:30:16;;;;;;;72.20;11.87;;;13.00;1.00;;;;;;5111417;28;20485;-77
2022/11/16 01:32:43;;;;;;;70.30;9.77;;;12.90;1.00;;;;;;5112019;28;20542;-77
2022/11/16 01:35:14;;;;;;;65.00;9.60;;;12.40;1.00;;;;;;5112212;28;20533;-77
2022/11/16 01:37:41;;;;;;;68.77;11.60;;;12.40;1.00;;;;;;5112209;28;20572;-77
2022/11/16 01:40:09;;;;;;;70.07;11.87;;;12.60;1.00;;;;;;5111142;28;20965;-77
2022/11/16 01:42:37;;;;;;;70.57;12.17;;;12.60;1.00;;;;;;5111928;28;20533;-77
2022/11/16 01:45:08;;;;;;;64.97;10.47;;;12.80;1.00;;;;;;5111828;28;20469;-78
2022/11/16 01:47:35;;;;;;;65.93;10.63;;;12.80;1.00;;;;;;5111760;28;21012;-78
2022/11/16 01:50:08;;;;;;;74.57;14.10;;;12.60;1.00;;;;;;5111366;28;20877;-78
2022/11/16 01:52:39;;;;;;;70.87;12.13;;;12.70;1.00;;;;;;5111690;28;20476;-77
2022/11/16 01:55:06;;;;;;;74.07;13.60;;;12.90;1.00;;;;;;5111891;28;20449;-77
2022/11/16 01:57:40;;;;;;;72.63;13.00;;;12.90;1.00;;;;;;5112441;28;20492;-77
2022/11/16 02:00:09;;;;;;;67.97;12.33;;;12.60;1.00;;;;;;5115146;28;20485;-77
2022/11/16 02:02:36;;;;;;;66.13;10.17;;;12.40;1.00;;;;;;5115722;28;20533;-78
2022/11/16 02:05:04;;;;;;;63.30;7.50;;;12.30;1.00;;;;;;5115673;28;20496;-77
2022/11/16 02:10:43;;;;;;;63.10;7.80;;;12.00;1.00;;;;;;5113795;28;20429;-77
2022/11/16 02:13:24;;;;;;;64.47;8.73;;;11.70;1.00;;;;;;5115452;28;20441;-77
2022/11/16 02:15:55;;;;;;;63.00;7.90;;;11.70;1.00;;;;;;5111800;28;20460;-77
2022/11/16 02:18:31;;;;;;;62.73;7.40;;;11.60;1.00;;;;;;5114950;28;20468;-78
2022/11/16 02:21:24;;;;;;;64.73;8.07;;;11.60;1.00;;;;;;5115000;28;20487;-77
2022/11/16 02:24:17;;;;;;;63.37;7.73;;;11.80;1.00;;;;;;5115332;28;20445;-77
2022/11/16 02:27:05;;;;;;;62.53;7.53;;;11.80;1.00;;;;;;5115435;28;20476;-77
2022/11/16 02:29:37;;;;;;;64.80;8.73;;;11.60;1.00;;;;;;5114272;28;20579;-76
2022/11/16 02:32:12;;;;;;;62.50;7.60;;;11.50;1.00;;;;;;5115016;28;20492;-77
2022/11/16 02:34:44;;;;;;;66.40;7.97;;;11.90;1.00;;;;;;5114895;28;20474;-77
2022/11/16 02:37:13;;;;;;;63.00;7.80;;;11.90;1.00;;;;;;5115007;28;20480;-77
2022/11/16 02:39:44;;;;;;;65.10;8.20;;;11.70;1.00;;;;;;5114249;28;20467;-77
2022/11/16 02:42:14;;;;;;;69.10;8.37;;;11.90;1.00;;;;;;5114927;28;20485;-77
2022/11/16 02:44:46;;;;;;;63.17;8.37;;;12.30;1.00;;;;;;5114911;28;20441;-76
2022/11/16 02:47:18;;;;;;;65.40;8.63;;;12.10;1.00;;;;;;5115238;28;20445;-77
2022/11/16 02:49:50;;;;;;;63.60;7.87;;;11.90;1.00;;;;;;5114081;28;20523;-78
2022/11/16 02:52:17;;;;;;;64.37;8.53;;;11.90;1.00;;;;;;5114910;28;20477;-78
2022/11/16 02:54:44;;;;;;;64.73;9.00;;;11.50;1.00;;;;;;5114392;28;20492;-78
2022/11/16 02:57:28;;;;;;;63.77;8.33;;;11.50;1.00;;;;;;5114539;28;20456;-78
2022/11/16 02:59:58;;;;;;;65.07;8.83;;;11.50;1.00;;;;;;5114048;28;20484;-79
2022/11/16 03:02:32;;;;;;;64.50;8.73;;;11.70;1.00;;;;;;5114833;28;20533;-78
2022/11/16 03:05:04;;;;;;;64.13;8.90;;;11.90;1.00;;;;;;5114899;28;20481;-79
2022/11/16 03:07:35;;;;;;;67.57;9.67;;;12.10;1.00;;;;;;5115252;28;20500;-78
2022/11/16 03:10:02;;;;;;;65.07;8.57;;;12.20;1.00;;;;;;5113893;28;20526;-78
2022/11/16 03:12:31;;;;;;;66.07;9.20;;;12.10;1.00;;;;;;5115812;28;20488;-78
2022/11/16 03:15:03;;;;;;;64.40;8.87;;;11.80;1.00;;;;;;5116668;28;21044;-78
2022/11/16 03:17:34;;;;;;;62.23;8.00;;;11.50;1.00;;;;;;5116457;28;21000;-78
2022/11/16 03:20:04;;;;;;;63.30;8.57;;;11.40;1.00;;;;;;5115705;28;20528;-78
2022/11/16 03:22:35;;;;;;;63.57;8.00;;;11.80;1.00;;;;;;5116352;28;20533;-78
2022/11/16 03:25:02;;;;;;;65.83;9.37;;;12.00;1.00;;;;;;5116831;28;20877;-78
2022/11/16 03:27:37;;;;;;;64.17;7.87;;;12.00;1.00;;;;;;5116096;28;20889;-78
2022/11/16 03:30:08;;;;;;;64.30;8.90;;;12.00;1.00;;;;;;5115352;28;20517;-78
2022/11/16 03:32:41;;;;;;;64.50;8.20;;;12.00;1.00;;;;;;5116234;28;20500;-77
2022/11/16 03:35:15;;;;;;;62.80;7.47;;;12.10;1.00;;;;;;5115677;28;20485;-78
2022/11/16 03:37:43;;;;;;;63.90;8.13;;;12.30;1.00;;;;;;5116132;28;20497;-78
2022/11/16 03:40:11;;;;;;;61.97;7.03;;;12.10;1.00;;;;;;5115293;28;20537;-78
2022/11/16 03:42:39;;;;;;;64.30;8.10;;;12.00;1.00;;;;;;5116017;28;20488;-78
2022/11/16 03:45:09;;;;;;;65.53;7.47;;;11.90;1.00;;;;;;5115999;28;20481;-78
2022/11/16 03:47:36;;;;;;;67.50;8.67;;;12.00;1.00;;;;;;5116046;28;20976;-78
2022/11/16 03:50:03;;;;;;;64.83;7.47;;;12.30;1.00;;;;;;5115353;28;20481;-78
2022/11/16 03:52:30;;;;;;;63.67;7.80;;;12.10;1.00;;;;;;5116401;28;20536;-78
2022/11/16 03:54:57;;;;;;;64.80;7.53;;;12.10;1.00;;;;;;5115915;28;20485;-78
2022/11/16 03:57:23;;;;;;;64.37;8.90;;;12.10;1.00;;;;;;5115798;28;20548;-78
2022/11/16 03:59:50;;;;;;;64.30;8.50;;;12.20;1.00;;;;;;5115087;28;20973;-78
2022/11/16 04:02:19;;;;;;;64.40;8.27;;;12.20;1.00;;;;;;5115969;28;20524;-78
2022/11/16 04:24:23;;;;;;;62.40;7.20;;;12.70;1.00;;;;;;5053586;28;20428;-78
2022/11/16 04:29:41;;;;;;;65.10;7.93;;;12.80;1.00;;;;;;5113547;28;20480;-78
2022/11/16 04:37:49;;;;;;;62.87;8.10;;;12.70;1.00;;;;;;5113456;28;20491;-78
2022/11/16 04:40:16;;;;;;;64.13;8.30;;;12.80;1.00;;;;;;5112967;28;20494;-77
2022/11/16 04:42:43;;;;;;;62.60;7.70;;;12.80;1.00;;;;;;5114025;28;20529;-77
2022/11/16 04:47:55;;;;;;;62.90;7.43;;;12.90;1.00;;;;;;5115003;28;20449;-78
2022/11/16 04:50:23;;;;;;;63.07;7.40;;;13.00;1.00;;;;;;5113740;28;20896;-78
2022/11/16 04:52:50;;;;;;;63.63;7.73;;;13.10;1.00;;;;;;5114789;28;21023;-78
2022/11/16 04:55:17;;;;;;;63.17;8.10;;;13.20;1.00;;;;;;5115254;28;20465;-78
2022/11/16 04:57:43;;;;;;;67.20;7.37;;;13.20;1.00;;;;;;5114730;28;20515;-78
2022/11/16 05:00:12;;;;;;;69.53;8.00;;;13.20;1.00;;;;;;5113982;28;20800;-78
2022/11/16 05:02:38;;;;;;;61.77;7.27;;;13.30;1.00;;;;;;5115312;28;20484;-78
2022/11/16 05:05:06;;;;;;;62.37;8.00;;;13.30;1.00;;;;;;5115293;28;20480;-78
2022/11/16 05:07:34;;;;;;;62.97;7.50;;;13.30;1.00;;;;;;5116130;28;20548;-78
2022/11/16 05:10:02;;;;;;;62.43;7.20;;;13.30;1.00;;;;;;5115341;28;20581;-78
2022/11/16 05:12:30;;;;;;;64.83;8.33;;;13.20;1.00;;;;;;5116545;28;20855;-78
2022/11/16 05:14:57;;;;;;;65.17;9.60;;;13.30;1.00;;;;;;5115862;28;20965;-78
2022/11/16 05:17:25;;;;;;;65.07;10.90;;;13.30;1.00;;;;;;5116297;28;20884;-78
2022/11/16 05:22:38;;;;;;;64.70;10.23;;;13.10;1.00;;;;;;5115223;28;20425;-78
2022/11/16 05:25:07;;;;;;;65.80;9.00;;;13.10;1.00;;;;;;5115107;28;20536;-78
2022/11/16 05:27:34;;;;;;;64.70;9.67;;;13.10;1.00;;;;;;5113533;28;20448;-78
2022/11/16 05:30:01;;;;;;;66.30;9.27;;;13.10;1.00;;;;;;5112274;28;20601;-78
2022/11/16 05:32:28;;;;;;;66.80;10.47;;;13.20;1.00;;;;;;5115069;28;20532;-77
2022/11/16 05:34:55;;;;;;;65.90;9.50;;;13.20;1.00;;;;;;5117346;28;20532;-77
2022/11/16 05:37:25;;;;;;;67.17;11.73;;;13.20;1.00;;;;;;5117351;28;20453;-77
2022/11/16 05:39:54;;;;;;;70.10;11.23;;;13.00;1.00;;;;;;5116463;28;20492;-77
2022/11/16 05:42:21;;;;;;;67.63;9.93;;;12.90;1.00;;;;;;5117376;28;20577;-77
2022/11/16 05:44:48;;;;;;;65.90;9.17;;;13.00;1.00;;;;;;5116457;28;20481;-77
2022/11/16 05:47:15;;;;;;;65.53;8.90;;;13.10;1.00;;;;;;5117264;28;20453;-77
2022/11/16 05:49:42;;;;;;;63.30;8.60;;;13.10;1.00;;;;;;5116739;28;20513;-77
2022/11/16 05:52:08;;;;;;;66.50;10.53;;;13.20;1.00;;;;;;5118048;28;20868;-77
2022/11/16 05:54:35;;;;;;;65.00;10.20;;;13.10;1.00;;;;;;5117643;28;20485;-77
2022/11/16 05:57:04;;;;;;;66.83;10.30;;;13.10;1.00;;;;;;5117900;28;20449;-77
2022/11/16 05:59:30;;;;;;;65.07;9.87;;;13.10;1.00;;;;;;5117084;28;20485;-77
2022/11/16 06:01:57;;;;;;;68.67;10.23;;;13.10;1.00;;;;;;5117451;28;20465;-77
2022/11/16 06:04:24;;;;;;;70.43;10.43;;;12.90;1.00;;;;;;5115932;28;20453;-77
2022/11/16 06:06:51;;;;;;;69.37;9.80;;;12.90;1.00;;;;;;5116673;28;20532;-77
2022/11/16 06:09:18;;;;;;;70.80;10.80;;;12.80;1.00;;;;;;5114492;28;21073;-77
2022/11/16 06:11:45;;;;;;;67.20;9.70;;;12.70;1.00;;;;;;5116172;28;20484;-77
2022/11/16 06:14:13;;;;;;;66.07;10.60;;;12.50;1.00;;;;;;5116527;28;20449;-77
2022/11/16 06:16:40;;;;;;;66.03;11.00;;;12.20;1.00;;;;;;5116558;28;20456;-77
2022/11/16 06:19:07;;;;;;;69.93;11.17;;;12.40;1.00;;;;;;5117000;28;20472;-77
2022/11/16 06:21:34;;;;;;;66.27;10.90;;;12.50;1.00;;;;;;5116669;28;20484;-77
2022/11/16 06:24:01;;;;;;;67.47;12.03;;;12.50;1.00;;;;;;5115720;28;20449;-77
2022/11/16 06:26:28;;;;;;;67.40;10.23;;;12.50;1.00;;;;;;5115731;28;20446;-77
2022/11/16 06:28:55;;;;;;;68.10;11.43;;;12.40;1.00;;;;;;5114784;28;20572;-77
2022/11/16 06:31:23;;;;;;;66.90;11.63;;;12.60;1.00;;;;;;5115545;28;20545;-77
2022/11/16 06:33:50;;;;;;;66.80;10.70;;;12.70;1.00;;;;;;5115480;28;20451;-77
2022/11/16 06:36:17;;;;;;;65.17;10.43;;;12.80;1.00;;;;;;5115198;28;20496;-77
2022/11/16 06:38:43;;;;;;;67.50;11.07;;;12.80;1.00;;;;;;5114369;28;20469;-77
2022/11/16 06:41:11;;;;;;;66.17;10.83;;;12.80;1.00;;;;;;5115615;28;20492;-77
2022/11/16 06:43:37;;;;;;;66.57;11.70;;;12.90;1.00;;;;;;5114332;28;20477;-77
2022/11/16 06:46:04;;;;;;;67.17;12.00;;;12.90;1.00;;;;;;5115139;28;20481;-77
2022/11/16 06:48:33;;;;;;;70.03;13.17;;;12.90;1.00;;;;;;5114541;28;20497;-77
2022/11/16 06:51:00;;;;;;;67.53;12.37;;;12.90;1.00;;;;;;5114868;28;20568;-77
2022/11/16 06:53:27;;;;;;;66.27;12.10;;;12.90;1.00;;;;;;5115298;28;20450;-77
2022/11/16 06:55:53;;;;;;;72.27;13.40;;;12.90;1.00;;;;;;5115173;28;20536;-77
2022/11/16 06:58:20;;;;;;;68.77;13.37;;;12.90;1.00;;;;;;5114845;28;20564;-77
2022/11/16 07:00:47;;;;;;;68.87;13.53;;;13.00;1.00;;;;;;5114197;28;20929;-77
2022/11/16 07:03:14;;;;;;;69.97;13.57;;;13.00;1.00;;;;;;5114541;28;20481;-77
2022/11/16 07:05:42;;;;;;;69.17;12.10;;;13.00;1.00;;;;;;5114822;28;20446;-77
2022/11/16 07:08:09;;;;;;;68.80;12.87;;;12.90;1.00;;;;;;5114787;28;20466;-77
2022/11/16 07:10:37;;;;;;;75.77;14.17;;;12.90;1.00;;;;;;5114069;28;20492;-77
2022/11/16 07:13:04;;;;;;;66.33;12.13;;;12.80;1.00;;;;;;5114694;28;20971;-77
2022/11/16 07:15:31;;;;;;;65.80;11.60;;;12.60;1.00;;;;;;5114794;28;20445;-77
2022/11/16 07:18:03;;;;;;;68.80;11.73;;;12.60;1.00;;;;;;5114236;28;20581;-77
2022/11/16 07:20:30;;;;;;;67.37;10.40;;;12.70;1.00;;;;;;5113940;28;20448;-77
2022/11/16 07:23:02;;;;;;;67.60;11.40;;;12.70;1.00;;;;;;5114888;28;21133;-77
2022/11/16 07:25:29;;;;;;;70.43;11.00;;;12.90;1.00;;;;;;5115014;28;20469;-77
2022/11/16 07:27:58;;;;;;;65.40;10.27;;;12.90;1.00;;;;;;5114554;28;20508;-77
2022/11/16 07:30:25;;;;;;;69.20;10.50;;;12.90;1.00;;;;;;5113926;28;20530;-77
2022/11/16 07:32:57;;;;;;;66.23;9.70;;;13.00;1.00;;;;;;5114677;28;20482;-77
2022/11/16 07:35:24;;;;;;;64.93;9.67;;;13.00;1.00;;;;;;5114686;28;20529;-77
2022/11/16 07:37:50;;;;;;;65.27;8.17;;;12.90;1.00;;;;;;5114635;28;20508;-77
2022/11/16 07:40:19;;;;;;;64.10;8.10;;;12.90;1.00;;;;;;5114209;28;20530;-78
2022/11/16 07:42:46;;;;;;;63.17;7.87;;;13.00;1.00;;;;;;5114628;28;20477;-77
2022/11/16 07:45:13;;;;;;;63.47;7.87;;;13.00;1.00;;;;;;5114622;28;20457;-77
2022/11/16 07:47:40;;;;;;;64.40;7.20;;;;;;;;;;5115046;28;20505;-78
2022/11/16 07:50:09;;;;;;;61.93;6.77;;;;;;;;;;5114847;28;20485;-78
2022/11/16 07:52:36;;;;;;;64.77;7.27;;;;;;;;;;5115486;28;20954;-78
2022/11/16 07:55:04;;;;;;;63.20;6.63;;;;;;;;;;5116207;28;20463;-79
2022/11/16 07:57:33;;;;;;;62.57;6.80;;;;;;;;;;5116450;28;20802;-79
2022/11/16 08:00:00;;;;;;;60.93;6.60;;;;;;;;;;5116186;28;20484;-79
2022/11/16 08:02:27;;;;;;;61.23;6.27;;;;;;;;;;5116459;28;20448;-80
2022/11/16 08:04:54;;;;;;;60.43;5.50;;;;;;;;;;5116653;28;20481;-79
2022/11/16 08:07:21;;;;;;;65.50;8.90;;;13.10;1.00;;;;;;5116714;28;20452;-80
2022/11/16 08:09:49;;;;;;;63.40;8.03;;;14.40;1.00;;;;;;5115229;28;20513;-80
2022/11/16 08:12:16;;;;;;;64.50;6.90;;;14.50;1.00;;;;;;5115929;28;20456;-80
2022/11/16 08:14:44;;;;;;;63.03;7.10;;;14.60;1.00;;;;;;5116287;28;20492;-80
2022/11/16 08:17:11;;;;;;;60.67;6.70;;;14.80;1.00;;;;;;5116939;28;20506;-80
2022/11/16 08:19:39;;;;;;;65.57;8.77;;;14.80;1.00;;;;;;5118040;28;20465;-81
2022/11/16 08:22:06;;;;;;;63.40;7.57;;;14.80;1.00;;;;;;5119002;28;20461;-79
2022/11/16 08:24:32;;;;;;;66.87;6.63;;;14.60;1.00;;;;;;5118582;28;20477;-80
2022/11/16 08:26:59;;;;;;;63.00;6.37;;;14.80;1.00;;;;;;5118603;28;20488;-80
2022/11/16 08:29:26;;;;;;;63.10;6.43;;;14.80;1.00;;;;;;5117820;28;20513;-81
2022/11/16 08:31:55;;;;;;;60.57;5.13;;;14.80;1.00;;;;;;5117989;28;20532;-80
2022/11/16 08:34:21;;;;;;;61.37;4.73;;;14.80;1.00;;;;;;5117261;28;21041;-80
2022/11/16 08:36:48;;;;;;;59.77;4.60;;;14.50;1.00;;;;;;5116413;28;20548;-80
2022/11/16 08:39:15;;;;;;;59.90;4.10;;;14.80;1.00;;;;;;5115294;28;20476;-80
2022/11/16 08:41:43;;;;;;;60.40;4.33;;;15.10;1.00;;;;;;5115474;28;20460;-80
2022/11/16 08:44:10;;;;;;;60.07;4.50;;;15.40;1.00;;;;;;5114999;28;20456;-80
2022/11/16 08:46:38;;;;;;;59.00;4.43;;;15.70;1.00;;;;;;5113894;28;20954;-81
2022/11/16 08:49:06;;;;;;;59.50;4.20;;;15.70;1.00;;;;;;5112996;28;20472;-80
2022/11/16 08:51:33;;;;;;;59.20;4.10;;;15.90;1.00;;;;;;5113386;28;20592;-80
2022/11/16 08:54:00;;;;;;;62.40;3.70;;;16.00;1.00;;;;;;5113854;28;20476;-79
2022/11/16 08:56:28;;;;;;;61.23;3.80;;;16.10;1.00;;;;;;5113783;28;20487;-80
2022/11/16 08:58:56;;;;;;;61.50;3.50;;;16.10;1.00;;;;;;5112695;28;21073;-80
2022/11/16 09:01:24;;;;;;;61.27;4.13;;;16.20;1.00;;;;;;5113198;28;20473;-79
2022/11/16 09:03:52;;;;;;;62.17;4.33;;;16.30;1.00;;;;;;5112875;28;20492;-80
2022/11/16 09:06:21;;;;;;;59.50;4.37;;;16.30;1.00;;;;;;5112135;28;20456;-78
2022/11/16 09:08:48;;;;;;;61.40;3.97;;;16.40;1.00;;;;;;5111941;28;20552;-78
2022/11/16 09:11:17;;;;;;;59.87;3.90;;;16.20;1.00;;;;;;5114147;28;20485;-80
2022/11/16 09:13:44;;;;;;;59.07;3.77;;;16.00;1.00;;;;;;5113842;28;20504;-79
2022/11/16 09:16:14;;;;;;;59.43;3.47;;;15.70;1.00;;;;;;5112888;28;20524;-78
2022/11/16 09:18:41;;;;;;;58.90;3.77;;;15.60;1.00;;;;;;5112130;28;20477;-78
2022/11/16 09:21:08;;;;;;;59.43;3.53;;;15.70;1.00;;;;;;5112698;28;20525;-78
2022/11/16 09:23:36;;;;;;;60.37;3.53;;;15.80;1.00;;;;;;5112630;28;20475;-78
2022/11/16 09:26:05;;;;;;;58.53;3.10;;;15.80;1.00;;;;;;5112249;28;20537;-77
2022/11/16 09:28:32;;;;;;;59.60;3.60;;;16.00;1.00;;;;;;5111681;28;20542;-78
2022/11/16 09:31:01;;;;;;;59.30;3.70;;;16.00;1.00;;;;;;5111962;28;20572;-78
2022/11/16 09:33:29;;;;;;;58.67;3.37;;;16.10;1.00;;;;;;5112017;28;20456;-77
2022/11/16 09:36:00;;;;;;;59.23;4.00;;;16.70;1.00;;;;;;5112328;28;20833;-77
2022/11/16 09:38:27;;;;;;;59.27;3.50;;;17.80;1.00;;;;;;5112333;28;20500;-77
2022/11/16 09:40:56;;;;;;;59.07;3.50;;;18.80;1.00;;;;;;5111796;28;21018;-77
2022/11/16 09:43:37;;;;;;;60.50;4.00;;;20.10;1.00;;;;;;5112339;28;20876;-77
2022/11/16 09:46:14;;;;;;;61.40;3.20;;;21.20;1.00;;;;;;5112295;28;20933;-77
2022/11/16 09:48:41;;;;;;;59.50;3.60;;;21.20;99.90;;;;;;5111839;28;20508;-77
2022/11/16 09:51:13;;;;;;;63.87;3.33;;;20.50;99.90;;;;;;5111861;28;21055;-77
2022/11/16 09:53:43;;;;;;;59.73;3.13;;;20.20;99.90;;;;;;5112309;28;20461;-77
2022/11/16 09:56:14;;;;;;;59.73;3.37;;;;;;;;;;5111742;28;20456;-77
2022/11/16 09:58:43;;;;;;;58.30;3.27;;;;;;;;;;5111208;28;20477;-77
2022/11/16 10:01:22;;;;;;;59.50;3.20;;;19.90;99.90;;;;;;5111969;28;20469;-76
2022/11/16 10:03:51;;;;;;;59.27;3.13;;;17.40;99.90;;;;;;5111995;28;20520;-77
2022/11/16 10:06:22;;;;;;;59.87;2.90;;;17.30;99.90;;;;;;5111705;28;21020;-76
2022/11/16 10:08:51;;;;;;;59.77;3.33;;;17.60;99.90;;;;;;5110944;28;20564;-76
2022/11/16 10:11:51;;;;;;;58.97;3.50;;;17.70;99.90;;;;;;5111859;28;20491;-76
2022/11/16 10:15:00;;;;;;;59.90;3.37;;;17.90;99.90;;;;;;5111625;28;20492;-77
2022/11/16 10:17:38;;;;;;;60.60;3.80;;;18.10;99.90;;;;;;5111946;28;20442;-77
2022/11/16 10:20:19;;;;;;;59.23;3.30;;;18.30;99.90;;;;;;5114464;28;20472;-77
2022/11/16 10:22:53;;;;;;;59.53;3.93;;;18.30;99.90;;;;;;5115492;28;20529;-76
2022/11/16 10:25:22;;;;;;;64.13;4.20;;;17.90;99.90;;;;;;5115326;28;20533;-76
2022/11/16 10:28:15;;;;;;;60.97;3.60;;;17.90;99.90;;;;;;5115378;28;20465;-76
2022/11/16 10:30:51;;;;;;;61.20;3.67;;;17.70;99.90;;;;;;5114666;28;20567;-76
2022/11/16 10:33:22;;;;;;;60.20;3.40;;;18.60;1.00;;;;;;5115283;28;20536;-76
2022/11/16 10:35:52;;;;;;;58.37;3.40;;;21.90;99.90;;;;;;5114984;28;20445;-76
2022/11/16 10:38:22;;;;;;;61.67;4.00;;;24.20;99.90;;;;;;5115030;28;20476;-76
2022/11/16 10:40:54;;;;;;;59.47;3.60;;;24.90;99.90;;;;;;5114426;28;20536;-77
2022/11/16 10:43:25;;;;;;;59.30;3.10;;;23.10;99.90;;;;;;5115031;28;20808;-77
2022/11/16 10:45:56;;;;;;;61.97;3.40;;;23.30;99.90;;;;;;5114942;28;20537;-77
2022/11/16 10:48:35;;;;;;;58.90;3.30;;;24.30;99.90;;;;;;5114586;28;20997;-76
2022/11/16 10:51:03;;;;;;;61.07;3.33;;;25.10;99.90;;;;;;5114761;28;20484;-76
2022/11/16 10:53:34;;;;;;;59.30;3.60;;;24.60;99.90;;;;;;5114970;28;20446;-76
2022/11/16 10:56:13;;;;;;;59.10;3.07;;;22.80;99.90;;;;;;5114759;28;21017;-76
2022/11/16 10:58:56;;;;;;;61.20;3.50;;;21.40;99.90;;;;;;5113629;28;20584;-77
2022/11/16 11:01:35;;;;;;;59.50;3.00;;;23.70;99.90;;;;;;5114579;28;20465;-76
2022/11/16 11:04:18;;;;;;;58.70;3.33;;;27.50;99.90;;;;;;5114598;28;20445;-77
2022/11/16 11:06:47;;;;;;;59.60;3.20;;;28.50;99.90;;;;;;5114880;28;20458;-77
2022/11/16 11:09:15;;;;;;;60.83;3.50;;;;;;;;;;5113457;28;21008;-77
2022/11/16 11:14:39;;;;;;;58.87;3.20;;;24.30;99.90;;;;;;5051326;28;20425;-77
2022/11/16 11:17:13;;;;;;;59.67;3.50;;;25.30;99.90;;;;;;5099171;28;20532;-77
2022/11/16 11:19:40;;;;;;;59.10;3.13;;;26.30;99.90;;;;;;5113325;28;20524;-77
2022/11/16 11:22:13;;;;;;;58.80;3.53;;;25.10;99.90;;;;;;5114382;28;20828;-77
2022/11/16 11:24:47;;;;;;;59.10;3.60;;;23.80;99.90;;;;;;5114184;28;20444;-77
2022/11/16 11:27:20;;;;;;;60.87;3.50;;;22.40;99.90;;;;;;5114447;28;20438;-77
2022/11/16 11:29:52;;;;;;;58.70;3.37;;;21.00;99.90;;;;;;5113349;28;20477;-77
2022/11/16 11:32:19;;;;;;;58.73;3.47;;;20.30;99.90;;;;;;5114206;28;20852;-77
2022/11/16 11:34:50;;;;;;;59.73;3.73;;;19.60;99.90;;;;;;5114067;28;20532;-76
2022/11/16 11:37:20;;;;;;;61.50;3.67;;;19.00;99.90;;;;;;5114018;28;20473;-77
2022/11/16 11:39:47;;;;;;;57.87;3.13;;;19.00;99.90;;;;;;5113201;28;20533;-77
2022/11/16 11:42:23;;;;;;;59.90;3.20;;;19.30;99.90;;;;;;5113762;28;20473;-77
2022/11/16 11:45:05;;;;;;;58.70;3.13;;;19.40;99.90;;;;;;5114022;28;20949;-77
2022/11/16 11:47:48;;;;;;;58.70;3.27;;;19.50;99.90;;;;;;5114007;28;20484;-77
2022/11/16 11:50:19;;;;;;;59.00;3.20;;;19.20;99.90;;;;;;5112835;28;20525;-77
2022/11/16 11:53:02;;;;;;;59.60;3.80;;;19.00;99.90;;;;;;5113283;28;20455;-77
2022/11/16 11:55:29;;;;;;;59.40;3.50;;;18.80;99.90;;;;;;5113553;28;20977;-77
2022/11/16 11:57:57;;;;;;;61.27;4.60;;;18.80;99.90;;;;;;5113045;28;21059;-77
2022/11/16 12:00:26;;;;;;;59.67;3.50;;;18.80;99.90;;;;;;5112682;28;20953;-77
2022/11/16 12:03:20;;;;;;;65.07;3.90;;;18.90;99.90;;;;;;5113373;28;20544;-77
2022/11/16 12:06:04;;;;;;;60.17;3.70;;;18.80;99.90;;;;;;5113556;28;20533;-77
2022/11/16 12:09:00;;;;;;;61.67;3.70;;;18.90;99.90;;;;;;5113000;28;20565;-77
2022/11/16 12:11:38;;;;;;;59.53;3.60;;;18.70;99.90;;;;;;5112998;28;21005;-77
2022/11/16 12:14:20;;;;;;;58.80;3.90;;;18.50;99.90;;;;;;5113406;28;20477;-77
2022/11/16 12:17:00;;;;;;;58.70;3.17;;;18.30;99.90;;;;;;5113123;28;20456;-77
2022/11/16 12:19:58;;;;;;;60.47;4.10;;;18.10;99.90;;;;;;5112464;28;20520;-77
2022/11/16 12:22:50;;;;;;;59.93;4.30;;;18.00;99.90;;;;;;5113190;28;20525;-77
2022/11/16 12:25:24;;;;;;;60.17;3.50;;;18.00;99.90;;;;;;5113084;28;20524;-77
2022/11/16 12:28:02;;;;;;;58.27;3.63;;;17.80;99.90;;;;;;5113310;28;20819;-77
2022/11/16 12:30:33;;;;;;;60.40;3.97;;;17.80;99.90;;;;;;5111926;28;20445;-77
2022/11/16 12:33:18;;;;;;;67.37;4.40;;;17.90;99.90;;;;;;5112813;28;20489;-77
2022/11/16 12:35:54;;;;;;;59.63;3.50;;;18.10;99.90;;;;;;5112945;28;20819;-77
2022/11/16 12:38:42;;;;;;;61.03;4.00;;;18.40;99.90;;;;;;5112640;28;20504;-77
2022/11/16 12:41:42;;;;;;;60.27;4.10;;;18.70;99.90;;;;;;5112139;28;20446;-77
2022/11/16 12:44:10;;;;;;;59.40;3.70;;;18.80;99.90;;;;;;5070915;28;20473;-77
2022/11/16 12:46:48;;;;;;;59.87;3.90;;;19.10;99.90;;;;;;5112605;28;20442;-77
2022/11/16 12:49:53;;;;;;;59.47;4.13;;;19.40;99.90;;;;;;5111619;28;20475;-77
2022/11/16 12:52:37;;;;;;;60.07;4.33;;;19.40;99.90;;;;;;5080407;28;20568;-77
2022/11/16 12:55:15;;;;;;;59.13;4.00;;;19.40;99.90;;;;;;5112592;28;20448;-77
2022/11/16 12:57:51;;;;;;;61.07;3.93;;;19.40;99.90;;;;;;5112484;28;20620;-76
2022/11/16 13:00:20;;;;;;;59.30;3.40;;;19.40;99.90;;;;;;5111804;28;20448;-77
2022/11/16 13:03:08;;;;;;;58.90;3.90;;;19.40;99.90;;;;;;5112660;28;20450;-77
2022/11/16 13:05:52;;;;;;;59.80;3.20;;;19.40;99.90;;;;;;5112365;28;20441;-77
2022/11/16 13:08:35;;;;;;;61.90;3.80;;;19.50;99.90;;;;;;5112374;28;20466;-77
2022/11/16 13:11:09;;;;;;;60.87;3.93;;;19.80;99.90;;;;;;5112177;28;21009;-77
2022/11/16 13:13:38;;;;;;;63.37;4.23;;;20.00;99.90;;;;;;5112276;28;20528;-77
2022/11/16 13:16:06;;;;;;;59.97;3.70;;;20.10;99.90;;;;;;5112624;28;20481;-77
2022/11/16 13:18:37;;;;;;;59.30;3.63;;;20.20;99.90;;;;;;5111307;28;20508;-77
2022/11/16 13:21:11;;;;;;;61.60;3.90;;;20.10;99.90;;;;;;5112386;28;20442;-77
2022/11/16 13:23:47;;;;;;;59.37;3.77;;;20.10;99.90;;;;;;5112228;28;20449;-77
2022/11/16 13:26:23;;;;;;;60.07;3.60;;;20.20;99.90;;;;;;5112190;28;20481;-77
2022/11/16 13:28:56;;;;;;;60.07;3.47;;;20.20;99.90;;;;;;5111238;28;20497;-77
2022/11/16 13:31:30;;;;;;;59.30;2.93;;;19.50;99.90;;;;;;5112024;28;20481;-77
2022/11/16 13:34:00;;;;;;;59.50;3.27;;;18.70;99.90;;;;;;5112021;28;21047;-77
2022/11/16 13:36:44;;;;;;;59.90;3.20;;;18.70;99.90;;;;;;5111950;28;20968;-77
2022/11/16 13:39:13;;;;;;;61.37;3.50;;;18.90;99.90;;;;;;5111023;28;20538;-77
2022/11/16 13:41:42;;;;;;;59.43;3.20;;;19.00;99.90;;;;;;5112157;28;20524;-77
2022/11/16 13:44:21;;;;;;;58.10;3.00;;;19.30;99.90;;;;;;5111897;28;20445;-77
2022/11/16 13:46:51;;;;;;;58.50;3.10;;;19.40;99.90;;;;;;5111957;28;20473;-77